Accueil
METAR-TAF:

METAR-TAF

Aéroports :

Aéroport international de Nouméa - La Tontouta

Nouméa / La Tontouta, Nouvelle-Calédonie

latitude: 22-01S, longitude: 166-13E, altitude: 16 m

Observation

Le bulletin a été fait il y a 10 minutes, à 15:30 UTC
Vent 2 kt de direction variable
Température 17°C
Humidité 94%
Pression 1016 hPa
Visibilité 10 km ou plus

METAR: NWWW 231530Z AUTO VRB02KT 9999 FEW024/// BKN033/// OVC039/// ///TCU 17/16 Q1016 TEMPO SHRA

Heure: 02:40 (15:40 UTC)

Prévision

Le bulletin a été fait il y a 4 heures et 40 minutes, à 11:00 UTC
Prévision valable du 23 à 12 UTC au 24 à 12 UTC
Vent 8 kt de est/sud-est
Visibilité 10 km ou plus
Quelques nuages à une hauteur de 3000 ft
Probabilité 40% :
Temporairement
du 23 à 16 UTC au 24 à 06 UTC
Quelques nuages à une hauteur de 2000 ft, Cumulus congestus.
averses de pluie

TAF: NWWW 231100Z 2312/2412 12008KT 9999 FEW030 PROB40 TEMPO 2316/2406 SHRA FEW020TCU

Observations et prévisions météorologiques de plus de 4000 aéroports (messages METAR et TAF).

Les stations disponibles sont représentées par des disques jaunes et rouges sur la carte.

Passer la souris dessus pour voir le nom de la station.

Cliquer dessus pour voir les observations et prévisions météorologiques.

Pour changer de carte: cliquez sur les boutons verts avec une croix noire pour zoomer, sur le bouton vert avec un tiret pour effectuer un zoom arrière, ou sur les flèches vertes pour les cartes adjacentes.


METAR-TAF: